METAR / TAF

Die METAR- und TAF-Liste ist aus technischen Gründen (Verfügbarkeit, Update-Zyklen) nicht für ein Meteo-Briefing gedacht. Benutzen Sie stattdessen skybriefing der Skyguide  oder das TAMSI (MeteoSchweiz-eigene Meteo Selfbriefing-Plattform für Firmen aus der Aviatik; Anfragen über das

Kontaktformular

METAR Schweiz

METAR     LSZH 190820Z VRB01KT CAVOK 19/15 Q1023 NOSIG=
METAR     LSZH 190850Z VRB02KT CAVOK 20/15 Q1023 NOSIG=
METAR     LSGG 190820Z 08003KT CAVOK 21/15 Q1023 NOSIG=
METAR     LSGG 190850Z 10004KT CAVOK 22/15 Q1023 NOSIG=
METAR     LFSB 190830Z 14008KT CAVOK 21/15 Q1021 NOSIG=
METAR     LSZB 190820Z 11006KT 080V180 9999 FEW130 20/15 Q1023
               NOSIG=
METAR     LSZB 190850Z 11006KT 9999 FEW130 21/15 Q1023 NOSIG=
METAR     LSZA 190820Z VRB02KT CAVOK 21/17 Q1022 NOSIG=
METAR     LSZA 190850Z VRB02KT CAVOK 21/16 Q1022 NOSIG=
METAR     LSZG 190820Z VRB01KT CAVOK 19/14 Q1023 NOSIG=
METAR     LSZG 190850Z 21002KT CAVOK 21/14 Q1023 NOSIG=
METAR     LSZR 190820Z VRB03KT CAVOK 18/15 Q1023 NOSIG RMK E=
METAR     LSZR 190850Z 33003KT CAVOK 20/16 Q1023 NOSIG RMK F=
METAR     LSGS 190820Z 09003KT 050V120 9999 FEW070 19/11 Q1024=
METAR     LSGS 190850Z 09004KT 030V140 9999 FEW070 20/11 Q1024=
METAR     LSGC 190820Z AUTO 00000KT 9999 NCD 18/13 Q1025=
METAR     LSGC 190850Z AUTO VRB02KT CAVOK 20/11 Q1025=
METAR     LSZC 190820Z VRB01KT CAVOK 19/14 Q1023=
METAR     LSZC 190850Z AUTO VRB01KT CAVOK 21/14 Q1023=
METAR     LSZL 190820Z 08003KT 040V140 CAVOK 20/15 Q1022 RMK BLU=
METAR     LSZL 190850Z VRB02KT CAVOK 22/14 Q1022 RMK BLU=
METAR     LSZS 190820Z VRB02KT 9999 FEW055 08/08 Q1028 RMK F=
METAR     LSZS 190850Z VRB03KT 9999 FEW055 09/09 Q1028 RMK G=
METAR     LSMA 190820Z VRB02KT CAVOK 18/15 Q1023 RMK BLU=
METAR     LSMA 190850Z VRB02KT CAVOK 19/14 Q1023 RMK BLU=
METAR     LSMD 190820Z AUTO /////KT ////NDV // ////// ///// Q////
               RMK MIS=
METAR     LSMD 190850Z NIL=
METAR     LSME 190820Z 00000KT CAVOK 19/14 Q1023 RMK BLU=
METAR     LSME 190850Z NIL=
METAR     LSMM 190820Z 12004KT 080V150 CAVOK 18/13 Q1024 RMK BLU=
METAR     LSMM 190850Z VRB01KT CAVOK 19/13 Q1024 RMK BLU=
METAR     LSMP 190820Z 00000KT CAVOK 18/14 Q1023 RMK BLU=
METAR     LSMP 190850Z NIL=
METAR     LSMS 190820Z 09003KT 050V120 9999 FEW070 19/11 Q1024 RMK
               BLU+=
METAR     LSMS 190850Z 09004KT 030V140 9999 FEW070 20/11 Q1024 RMK
               BLU+=
Aktualisiert am Mittwoch, 19. September 2018, 11:01 Uhr

TAF Schweiz

TAF AAA LSZH 190653Z 1906/2012 VRB03KT 9000 NSC TX27/1914Z
             TN11/1906Z TN12/2006Z BECMG 1906/1909 CAVOK TEMPO
             1909/1915 9999 FEW050 BECMG 1923/2002 4000 MIFG NSC
             BECMG 2002/2005 1000 BCFG PROB40 2004/2006 0500 FG
             VV002 BECMG 2007/2010 CAVOK=
TAF     LSZH 190525Z 1906/2012 VRB03KT 3000 BCFG FEW001 TX27/1914Z
             TN11/1906Z TN12/2006Z PROB40 1906/1907 1200 PRFG
             VV002 BECMG 1907/1910 CAVOK BECMG 1923/2002 4000 MIFG
             NSC BECMG 2002/2005 1000 BCFG PROB40 2004/2006 0500
             FG VV002 BECMG 2007/2010 CAVOK=
TAF     LSGG 190525Z 1906/2012 VRB03KT CAVOK TX29/1915Z TN17/1906Z
             TN15/2005Z BECMG 1909/1911 23007KT 9999 FEW045 BECMG
             1918/1920 VRB03KT CAVOK=
TAF     LFSB 190500Z 1906/2006 16005KT CAVOK TEMPO 1912/1918
             FEW060CB=
TAF     LSGS 190525Z 1906/1915 VRB03KT CAVOK BECMG 1910/1912
             25012KT 9999 FEW070=
TAF     LSZA 190525Z 1906/1915 VRB03KT 8000 FEW005 BECMG 1906/1908
             CAVOK TEMPO 1910/1915 9999 FEW050=
TAF     LSZB 190525Z 1906/1915 VRB03KT 6000 MIFG NSC PROB30
             1906/1907 4000 BECMG 1907/1910 CAVOK TEMPO 1912/1915
             9999 FEW050=
TAF AAA LSZG 190646Z 1906/1915 VRB03KT 0600 BCFG FEW005 BECMG
             1907/1910 CAVOK TEMPO 1911/1915 9999 FEW050=
TAF     LSZG 190525Z 1906/1915 VRB03KT 2500 BR NSC PROB30 TEMPO
             1906/1908 1500 BCFG BECMG 1907/1910 CAVOK TEMPO
             1911/1915 9999 FEW050=
TAF     LSZL 190525Z 1906/1915 VRB03KT 8000 NSC BECMG 1906/1908
             CAVOK TEMPO 1910/1915 9999 FEW050=
TAF     LSZR 190225Z 1903/1912 VRB03KT CAVOK PROB30 1903/1907 4000
             BR=
TAF     LSGC 190525Z 1906/1915 VRB03KT CAVOK BECMG 1909/1911 9999
             FEW040=
TAF     LSZC 190525Z 1906/1915 23004KT CAVOK BECMG 1909/1911 9999
             FEW060=
TAF     LSZS 190525Z 1906/1915 VRB03KT 0100 FG VV001 TX19/1915Z
             BECMG 1906/1908 8000 FEW015 TEMPO 1907/1910 CAVOK
             BECMG 1909/1912 20010KT BECMG 1909/1911 9999 FEW070=
TAF AAJ LSMA 190710Z 1907/1923 VRB03KT CAVOK TEMPO 1910/1917 9999
             FEW070=
TAF AAG LSMA 190706Z 1907/1923 VRB03KT CAVOK TEMPO 1910/1917 9999
             FEW070=
TAF AAD LSMA 182044Z 1820/1923 VRB03KT 9999 FEW060 PROB30 TEMPO
             1820/1902 4000 TSRA SCT050CB PROB40 1902/1906 4000
             MIFG NSC PROB30 1903/1907 1500 BCFG BECMG 1916/1919
             CAVOK=
TAF     LSMA 181625Z 1817/1923 VRB03KT CAVOK PROB40 1902/1906 4000
             MIFG NSC PROB30 1903/1907 1500 BCFG BECMG 1909/1912
             9999 FEW050 BECMG 1916/1919 CAVOK=
TAF AAB LSMD 181932Z 1819/1923 VRB03KT CAVOK PROB40 TEMPO 1819/1821
             32015G30KT 4000 TSRA SCT050CB BECMG 1901/1904 4000
             MIFG NSC PROB40 1902/1907 1500 BCFG PROB30 1903/1907
             0500 FG VV002 BECMG 1906/1909 CAVOK TEMPO 1909/1918
             9999 FEW050=
TAF AAA LSMD 181929Z 1819/1923 VRB03KT CAVOK PROB40 TEMPO 1819/1821
             4000 TSRA SCT050CB BECMG 1901/1904 4000 MIFG NSC
             PROB40 1902/1907 1500 BCFG PROB30 1903/1907 0500 FG
             VV002 BECMG 1906/1909 CAVOK TEMPO 1909/1918 9999
             FEW050=
TAF     LSMD 181625Z 1817/1923 VRB03KT CAVOK BECMG 1901/1904 4000
             MIFG NSC PROB40 1902/1907 1500 BCFG PROB30 1903/1907
             0500 FG VV002 BECMG 1906/1909 CAVOK TEMPO 1909/1918
             9999 FEW050=
TAF AAF LSME 190527Z 1905/1923 VRB03KT CAVOK PROB30 1905/1907 7000
             MIFG NSC TEMPO 1910/1917 9999 FEW050=
TAF AAC LSME 182044Z 1820/1923 VRB03KT 9999 FEW050 PROB30 TEMPO
             1820/1901 4000 TSRA SCT050CB BECMG 1901/1904 4000
             MIFG NSC PROB40 1902/1907 1500 BCFG PROB30 1903/1907
             0500 FG VV002 BECMG 1906/1909 9999 FEW050=
TAF     LSME 181625Z 1817/1923 VRB03KT CAVOK BECMG 1901/1904 4000
             MIFG NSC PROB40 1902/1907 1500 BCFG PROB30 1903/1907
             0500 FG VV002 BECMG 1906/1909 CAVOK TEMPO 1909/1918
             9999 FEW050=
TAF AAI LSMM 190709Z 1907/1923 VRB03KT CAVOK TEMPO 1910/1917 9999
             FEW070=
TAF AAH LSMM 190707Z 1907/1923 VRB03KT CAVOK TEMPO 1910/1917 9999
             FEW070=
TAF AAE LSMM 182044Z 1820/1923 VRB03KT 9999 FEW080 PROB30 TEMPO
             1820/1901 4000 TSRA SCT050CB PROB40 1902/1906 4000
             MIFG NSC PROB30 1903/1907 1500 BCFG BECMG 1916/1919
             CAVOK=
TAF     LSMM 181625Z 1817/1923 VRB03KT CAVOK PROB40 1902/1906 4000
             MIFG NSC PROB30 1903/1907 1500 BCFG BECMG 1909/1912
             9999 FEW050 BECMG 1916/1919 CAVOK=
TAF     LSMP 190525Z 1906/2012 VRB03KT CAVOK=
Aktualisiert am Mittwoch, 19. September 2018, 10:03 Uhr